Time;durP1;ratioP1;P1;durP2;ratioP2;P2;SDS_P1;SDS_P2;PMS_P1;PMS_P2;Temp;Humidity;BMP_temperature;BMP_pressure;BME280_temperature;BME280_humidity;BME280_pressure;Samples;Min_cycle;Max_cycle;Signal;HPM_P1;HPM_P2
2022/01/22 00:00:38;;;;;;;5.10;2.60;;;;;;;0.20;100.00;97213.56;5070485;28;24442;-74
2022/01/22 00:03:04;;;;;;;3.28;2.50;;;;;;;0.23;100.00;97214.41;5070968;28;24430;-74
2022/01/22 00:05:31;;;;;;;3.50;2.80;;;;;;;0.14;100.00;97211.00;5070782;28;24491;-74
2022/01/22 00:07:57;;;;;;;3.05;2.38;;;;;;;0.35;100.00;97208.47;5070503;28;24422;-74
2022/01/22 00:10:24;;;;;;;3.42;2.50;;;;;;;0.17;100.00;97209.31;5070617;28;24442;-74
2022/01/22 00:14:23;;;;;;;3.03;2.15;;;;;;;0.10;100.00;97207.59;5070709;28;24423;-74
2022/01/22 00:15:55;;;;;;;3.97;2.30;;;;;;;0.03;100.00;97194.84;5070021;28;24990;-74
2022/01/22 00:18:21;;;;;;;3.13;2.35;;;;;;;0.05;100.00;97188.09;5070127;28;24421;-74
2022/01/22 00:20:48;;;;;;;3.10;2.35;;;;;;;0.07;100.00;97183.81;5070760;28;24476;-74
2022/01/22 00:23:16;;;;;;;3.83;2.60;;;;;;;0.00;100.00;97177.91;5070623;28;24418;-74
2022/01/22 00:25:42;;;;;;;5.78;2.72;;;;;;;-0.02;100.00;97188.06;5070412;28;24957;-74
2022/01/22 00:28:10;;;;;;;5.65;2.63;;;;;;;0.08;100.00;97173.66;5070188;28;24435;-74
2022/01/22 00:30:36;;;;;;;6.25;3.00;;;;;;;0.11;100.00;97178.75;5070371;28;24432;-74
2022/01/22 00:33:03;;;;;;;4.17;3.03;;;;;;;0.10;100.00;97183.84;5070245;28;24434;-73
2022/01/22 00:35:30;;;;;;;6.00;3.38;;;;;;;0.16;100.00;97199.97;5070548;28;24422;-74
2022/01/22 00:37:56;;;;;;;5.65;3.30;;;;;;;0.16;100.00;97206.78;5070307;28;24477;-74
2022/01/22 00:40:23;;;;;;;7.60;3.22;;;;;;;0.14;100.00;97201.66;5069651;28;24952;-75
2022/01/22 00:42:50;;;;;;;3.95;2.65;;;;;;;0.21;100.00;97203.38;5083938;28;24429;-73
2022/01/22 00:45:18;;;;;;;4.20;2.88;;;;;;;0.21;100.00;97198.28;5090192;28;24422;-74
2022/01/22 00:47:45;;;;;;;5.22;3.13;;;;;;;0.15;100.00;97195.75;5090334;28;24425;-74
2022/01/22 00:50:15;;;;;;;5.40;3.10;;;;;;;0.16;100.00;97191.50;5090577;28;24429;-74
2022/01/22 00:52:42;;;;;;;8.13;3.47;;;;;;;0.14;100.00;97183.81;5090566;28;24417;-74
2022/01/22 00:55:10;;;;;;;6.00;3.67;;;;;;;0.13;100.00;97184.69;5090454;28;24438;-74
2022/01/22 00:57:37;;;;;;;6.80;3.25;;;;;;;0.14;100.00;97188.06;5090381;28;24437;-74
2022/01/22 01:00:07;;;;;;;6.70;3.50;;;;;;;0.17;100.00;97188.09;5090520;28;24437;-74
2022/01/22 01:02:36;;;;;;;6.95;3.35;;;;;;;0.16;100.00;97178.75;5090532;28;24499;-74
2022/01/22 01:05:02;;;;;;;5.65;3.55;;;;;;;0.10;100.00;97177.03;5090449;28;24459;-74
2022/01/22 01:07:30;;;;;;;8.93;4.20;;;;;;;0.16;100.00;97188.94;5090529;28;24955;-74
2022/01/22 01:09:56;;;;;;;7.13;3.90;;;;;;;0.13;100.00;97184.69;5090391;28;24864;-74
2022/01/22 01:12:23;;;;;;;6.88;4.10;;;;;;;0.13;100.00;97196.56;5090249;28;24425;-73
2022/01/22 01:15:05;;;;;;;5.82;3.85;;;;;;;0.15;100.00;97185.56;5090139;28;24842;-74
2022/01/22 01:17:56;;;;;;;6.45;4.10;;;;;;;0.12;100.00;97182.16;5090047;28;24978;-74
2022/01/22 01:34:10;;;;;;;6.95;4.53;;;;;;;0.11;100.00;97193.16;5093972;28;24445;-74
2022/01/22 01:36:39;;;;;;;7.82;4.95;;;;;;;0.11;100.00;97194.03;5093849;28;24525;-74
2022/01/22 01:39:09;;;;;;;9.73;5.18;;;;;;;0.11;100.00;97199.13;5093987;28;24417;-74
2022/01/22 01:41:45;;;;;;;6.70;5.00;;;;;;;0.07;100.00;97199.09;5093706;28;24437;-74
2022/01/22 01:44:11;;;;;;;10.18;5.53;;;;;;;0.08;100.00;97195.72;5093769;28;24927;-74
2022/01/22 01:46:43;;;;;;;8.73;4.82;;;;;;;0.10;100.00;97204.22;5093680;28;24437;-73
2022/01/22 01:49:10;;;;;;;9.77;5.45;;;;;;;0.06;100.00;97205.91;5093958;28;24943;-74
2022/01/22 01:51:36;;;;;;;7.57;5.65;;;;;;;0.05;100.00;97211.84;5093802;28;24776;-74
2022/01/22 01:54:14;;;;;;;10.05;5.40;;;;;;;0.03;100.00;97208.44;5093462;28;25005;-74
2022/01/22 01:59:25;;;;;;;8.65;5.57;;;;;;;0.02;100.00;97213.53;5093640;28;24447;-74
2022/01/22 02:01:51;;;;;;;7.97;5.57;;;;;;;-0.04;100.00;97210.16;5093499;28;24779;-74
2022/01/22 02:04:18;;;;;;;8.88;6.03;;;;;;;-0.02;100.00;97208.44;5093714;28;24518;-74
2022/01/22 02:06:44;;;;;;;8.43;6.47;;;;;;;0.01;100.00;97212.69;5093031;28;24475;-73
2022/01/22 02:09:12;;;;;;;9.00;5.68;;;;;;;0.03;100.00;97213.53;5093633;28;24421;-74
2022/01/22 02:11:40;;;;;;;9.38;6.47;;;;;;;0.01;100.00;97207.59;5093499;28;24441;-74
2022/01/22 02:23:29;;;;;;;9.40;6.40;;;;;;;0.02;100.00;97219.47;5093169;28;24963;-74
2022/01/22 02:25:08;;;;;;;8.75;6.10;;;;;;;-0.02;100.00;97205.91;5093098;28;24406;-74
2022/01/22 02:27:35;;;;;;;9.50;6.93;;;;;;;-0.04;100.00;97202.50;5092678;28;24479;-74
2022/01/22 02:30:01;;;;;;;8.88;6.60;;;;;;;-0.03;100.00;97203.34;5092952;28;24940;-74
2022/01/22 02:32:53;;;;;;;10.75;6.80;;;;;;;-0.04;100.00;97204.19;5093009;28;24429;-74
2022/01/22 02:35:26;;;;;;;12.48;7.65;;;;;;;-0.06;100.00;97195.69;5092725;28;24449;-74
2022/01/22 02:37:59;;;;;;;11.50;6.88;;;;;;;-0.02;100.00;97194.84;5092841;28;24429;-74
2022/01/22 02:40:28;;;;;;;9.23;7.05;;;;;;;-0.02;100.00;97194.84;5092512;28;24429;-74
2022/01/22 02:42:55;;;;;;;11.57;7.63;;;;;;;-0.04;100.00;97202.50;5092496;28;24488;-74
2022/01/22 02:45:23;;;;;;;9.15;6.95;;;;;;;-0.02;100.00;97197.41;5092739;28;24532;-74
2022/01/22 02:47:50;;;;;;;9.25;6.68;;;;;;;0.01;100.00;97209.31;5092495;28;24838;-74
2022/01/22 02:50:17;;;;;;;8.80;7.13;;;;;;;-0.03;100.00;97200.81;5092234;28;24417;-74
2022/01/22 02:52:44;;;;;;;9.38;6.97;;;;;;;-0.03;100.00;97204.19;5092419;28;24418;-74
2022/01/22 02:55:13;;;;;;;9.10;6.97;;;;;;;-0.03;100.00;97204.19;5092566;28;24438;-73
2022/01/22 02:57:41;;;;;;;10.13;6.47;;;;;;;-0.04;100.00;97197.41;5092397;28;24422;-74
2022/01/22 03:00:11;;;;;;;10.77;7.07;;;;;;;-0.02;100.00;97193.16;5092427;28;24480;-74
2022/01/22 03:02:38;;;;;;;9.57;6.45;;;;;;;-0.01;100.00;97196.56;5092383;28;24513;-73
2022/01/22 03:05:06;;;;;;;6.93;6.23;;;;;;;0.03;100.00;97198.25;5092132;28;24491;-74
2022/01/22 03:07:32;;;;;;;9.35;7.22;;;;;;;0.00;100.00;97188.09;5092046;28;24452;-74
2022/01/22 03:10:02;;;;;;;7.85;7.05;;;;;;;0.01;100.00;97192.31;5092412;28;24425;-74
2022/01/22 03:12:50;;;;;;;7.97;5.72;;;;;;;0.04;100.00;97199.09;5092148;28;24780;-74
2022/01/22 03:18:09;;;;;;;8.00;6.20;;;;;;;0.09;100.00;97205.06;5091825;28;24970;-75
2022/01/22 03:20:45;;;;;;;9.88;6.10;;;;;;;0.10;100.00;97199.13;5092093;28;24426;-74
2022/01/22 03:27:19;;;;;;;7.72;5.45;;;;;;;0.10;100.00;97205.06;5091914;28;25048;-74
2022/01/22 03:28:55;;;;;;;6.25;5.65;;;;;;;0.24;100.00;97200.81;5091763;28;24776;-74
2022/01/22 03:31:22;;;;;;;9.00;6.32;;;;;;;0.20;100.00;97203.38;5091394;28;25149;-74
2022/01/22 03:33:49;;;;;;;7.57;5.67;;;;;;;0.17;100.00;97208.47;5091702;28;24422;-74
2022/01/22 03:36:15;;;;;;;7.13;5.20;;;;;;;0.33;100.00;97201.69;5091384;28;24513;-74
2022/01/22 03:38:42;;;;;;;8.02;5.90;;;;;;;0.37;100.00;97205.91;5092051;28;24445;-74
2022/01/22 03:41:08;;;;;;;6.28;5.65;;;;;;;0.34;100.00;97203.41;5091391;28;24430;-74
2022/01/22 03:43:35;;;;;;;8.45;5.40;;;;;;;0.35;100.00;97208.47;5091724;28;24421;-73
2022/01/22 03:46:02;;;;;;;7.03;6.32;;;;;;;0.33;100.00;97199.97;5091362;28;24410;-74
2022/01/22 03:48:29;;;;;;;9.40;5.38;;;;;;;0.41;100.00;97200.00;5091474;28;24426;-74
2022/01/22 03:50:55;;;;;;;11.52;5.70;;;;;;;0.34;100.00;97200.84;5091272;28;24440;-74
2022/01/22 03:53:22;;;;;;;8.60;6.07;;;;;;;0.35;100.00;97198.28;5091016;28;24423;-74
2022/01/22 03:55:57;;;;;;;7.63;4.88;;;;;;;0.29;100.00;97195.72;5091290;28;24438;-74
2022/01/22 03:58:24;;;;;;;7.28;5.35;;;;;;;0.26;100.00;97192.31;5091552;28;24818;-74
2022/01/22 04:01:01;;;;;;;8.37;4.77;;;;;;;0.27;100.00;97194.91;5091278;28;24464;-74
2022/01/22 04:03:31;;;;;;;8.30;5.50;;;;;;;0.20;100.00;97191.47;5091115;28;24460;-74
2022/01/22 04:06:20;;;;;;;9.98;6.03;;;;;;;0.24;100.00;97198.28;5091076;28;24514;-74
2022/01/22 04:08:47;;;;;;;7.72;5.82;;;;;;;0.36;100.00;97187.22;5091208;28;24429;-75
2022/01/22 04:11:15;;;;;;;8.82;5.10;;;;;;;0.24;100.00;97180.44;5091845;28;24504;-75
2022/01/22 04:13:44;;;;;;;13.88;5.32;;;;;;;0.24;100.00;97183.00;5090938;28;24429;-74
2022/01/22 04:16:13;;;;;;;8.30;5.43;;;;;;;0.26;100.00;97184.69;5090562;28;24464;-75
2022/01/22 04:26:58;;;;;;;8.13;5.50;;;;;;;0.32;100.00;97190.63;5090628;28;24954;-74
2022/01/22 04:29:26;;;;;;;10.13;6.10;;;;;;;0.37;100.00;97185.53;5090862;28;24827;-76
2022/01/22 04:31:54;;;;;;;13.15;5.70;;;;;;;0.34;100.00;97188.09;5090752;28;24781;-76
2022/01/22 04:34:22;;;;;;;10.48;6.15;;;;;;;0.33;100.00;97186.38;5088866;28;25001;-76
2022/01/22 04:36:48;;;;;;;8.13;5.72;;;;;;;0.33;100.00;97188.94;5088380;28;24445;-76
2022/01/22 04:39:14;;;;;;;10.68;6.07;;;;;;;0.32;100.00;97179.59;5092199;28;24815;-77
2022/01/22 04:41:41;;;;;;;8.13;5.53;;;;;;;0.38;100.00;97182.16;5092358;28;24918;-77
2022/01/22 04:44:08;;;;;;;6.45;5.57;;;;;;;0.38;100.00;97187.25;5093464;28;24425;-77
2022/01/22 04:46:52;;;;;;;6.55;4.97;;;;;;;0.43;100.00;97185.53;5093480;28;24491;-77
2022/01/22 04:55:00;;;;;;;8.50;5.97;;;;;;;0.27;100.00;97183.84;5067046;28;24623;-78
2022/01/22 04:57:27;;;;;;;7.45;5.68;;;;;;;0.24;100.00;97177.06;5093669;28;24426;-73
2022/01/22 04:59:54;;;;;;;8.90;6.00;;;;;;;0.23;100.00;97178.75;5091571;28;24418;-77
2022/01/22 05:02:20;;;;;;;8.87;6.13;;;;;;;0.22;100.00;97182.16;5092071;28;24469;-77
2022/01/22 05:04:47;;;;;;;7.53;6.07;;;;;;;0.29;100.00;97184.69;5091712;28;24430;-77
2022/01/22 05:07:15;;;;;;;11.10;6.03;;;;;;;0.33;100.00;97183.84;5095451;28;24418;-76
2022/01/22 05:09:42;;;;;;;10.23;5.72;;;;;;;0.28;100.00;97186.38;5097687;28;24422;-77
2022/01/22 05:12:09;;;;;;;11.02;5.55;;;;;;;0.42;100.00;97188.94;5098941;28;24434;-77
2022/01/22 05:14:36;;;;;;;9.13;6.15;;;;;;;0.37;100.00;97196.59;5099082;28;24429;-77
2022/01/22 05:17:04;;;;;;;8.43;5.78;;;;;;;0.34;100.00;97203.41;5095426;28;24414;-77
2022/01/22 05:19:36;;;;;;;12.98;6.38;;;;;;;0.28;100.00;97193.19;5094507;28;24512;-76
2022/01/22 05:22:12;;;;;;;8.43;5.30;;;;;;;0.29;100.00;97180.44;5094052;28;24434;-77
2022/01/22 05:24:44;;;;;;;10.60;6.60;;;;;;;0.23;100.00;97186.41;5094239;28;24422;-76
2022/01/22 05:27:33;;;;;;;10.45;6.13;;;;;;;0.32;100.00;97187.25;5094022;28;24981;-77
2022/01/22 05:30:10;;;;;;;8.60;6.15;;;;;;;0.31;100.00;97190.66;5094257;28;24532;-77
2022/01/22 05:32:54;;;;;;;10.18;6.28;;;;;;;0.27;100.00;97187.25;5094031;28;24959;-77
2022/01/22 05:38:07;;;;;;;12.02;6.20;;;;;;;0.32;100.00;97199.97;5093820;28;24563;-77
2022/01/22 05:40:35;;;;;;;9.38;6.00;;;;;;;0.28;100.00;97206.78;5093816;28;24434;-77
2022/01/22 05:43:01;;;;;;;9.77;6.75;;;;;;;0.35;100.00;97200.00;5093921;28;24488;-77
2022/01/22 05:45:28;;;;;;;11.05;5.88;;;;;;;0.28;100.00;97213.56;5094198;28;24834;-77
2022/01/22 05:47:54;;;;;;;9.13;6.53;;;;;;;0.31;100.00;97216.97;5097624;28;24951;-78
2022/01/22 05:50:31;;;;;;;9.00;6.35;;;;;;;0.30;100.00;97210.19;5098181;28;24433;-77
2022/01/22 05:53:02;;;;;;;12.10;7.03;;;;;;;0.22;100.00;97209.31;5098158;28;24970;-78
2022/01/22 06:00:54;;;;;;;10.27;6.93;;;;;;;0.24;100.00;97205.94;5097604;28;24903;-78
2022/01/22 06:03:21;;;;;;;8.77;6.53;;;;;;;0.27;100.00;97204.25;5097548;28;24445;-78
2022/01/22 06:05:47;;;;;;;10.85;6.57;;;;;;;0.25;100.00;97216.97;5097026;28;24430;-78
2022/01/22 06:08:16;;;;;;;10.02;6.50;;;;;;;0.33;100.00;97217.81;5097202;28;24414;-78
2022/01/22 06:10:45;;;;;;;9.43;6.70;;;;;;;0.34;100.00;97221.25;5097318;28;24935;-78
2022/01/22 06:13:16;;;;;;;9.73;7.07;;;;;;;0.33;100.00;97224.59;5097941;28;24438;-78
2022/01/22 06:15:42;;;;;;;7.97;6.50;;;;;;;0.31;100.00;97231.41;5097659;28;24551;-78
2022/01/22 06:18:09;;;;;;;10.82;7.07;;;;;;;0.32;100.00;97230.56;5097687;28;24422;-78
2022/01/22 06:20:36;;;;;;;10.35;6.82;;;;;;;0.33;100.00;97227.16;5097711;28;24422;-77
2022/01/22 06:23:03;;;;;;;9.25;7.22;;;;;;;0.38;100.00;97239.06;5096875;28;24433;-78
2022/01/22 06:25:30;;;;;;;12.27;6.38;;;;;;;0.35;100.00;97233.13;5097338;28;24422;-78
2022/01/22 06:27:57;;;;;;;10.10;6.22;;;;;;;0.36;100.00;97230.56;5097333;28;24409;-77
2022/01/22 06:30:26;;;;;;;9.63;5.90;;;;;;;0.42;100.00;97234.81;5096716;28;24847;-78
2022/01/22 06:32:52;;;;;;;10.15;6.95;;;;;;;0.37;100.00;97233.94;5097736;28;24862;-78
2022/01/22 06:35:19;;;;;;;10.50;7.22;;;;;;;0.42;100.00;97243.31;5097184;28;24495;-78
2022/01/22 06:37:45;;;;;;;14.27;8.07;;;;;;;0.53;100.00;97242.47;5096800;28;24537;-78
2022/01/22 06:42:56;;;;;;;14.38;9.90;;;;;;;0.56;100.00;97248.44;5097164;28;24497;-78
2022/01/22 06:45:22;;;;;;;11.70;9.75;;;;;;;0.59;100.00;97245.84;5097059;28;24406;-78
2022/01/22 06:47:50;;;;;;;16.00;9.48;;;;;;;0.46;100.00;97251.81;5096468;28;24426;-78
2022/01/22 06:50:18;;;;;;;11.90;7.03;;;;;;;0.44;100.00;97250.94;5096315;28;24421;-77
2022/01/22 06:52:45;;;;;;;8.13;6.63;;;;;;;0.50;100.00;97256.06;5095999;28;24424;-77
2022/01/22 06:55:15;;;;;;;12.77;9.88;;;;;;;0.55;100.00;97253.50;5096603;28;24450;-78
2022/01/22 06:57:41;;;;;;;16.17;10.95;;;;;;;0.56;100.00;97268.81;5096322;28;24426;-77
2022/01/22 07:00:09;;;;;;;9.05;6.22;;;;;;;0.56;100.00;97265.44;5096445;28;24429;-78
2022/01/22 07:02:35;;;;;;;13.05;9.82;;;;;;;0.52;100.00;97256.06;5096204;28;24982;-78
2022/01/22 07:05:03;;;;;;;13.43;9.80;;;;;;;0.58;100.00;97259.47;5096014;28;24939;-78
2022/01/22 07:07:31;;;;;;;14.15;10.32;;;;;;;0.58;100.00;97259.47;5096745;28;24433;-78
2022/01/22 07:09:57;;;;;;;10.30;7.38;;;;;;;0.55;100.00;97256.91;5096248;28;24433;-78
2022/01/22 07:12:23;;;;;;;15.32;9.82;;;;;;;0.61;100.00;97259.47;5096150;28;24429;-78
2022/01/22 07:14:50;;;;;;;11.77;9.07;;;;;;;0.62;100.00;97263.72;5095859;28;24462;-78
2022/01/22 07:17:17;;;;;;;14.70;9.55;;;;;;;0.60;100.00;97262.88;5095503;28;24442;-78
2022/01/22 07:19:44;;;;;;;10.15;8.23;;;;;;;0.63;100.00;97264.56;5096163;28;24476;-77
2022/01/22 07:22:33;;;;;;;15.80;9.77;;;;;;;0.65;100.00;97248.41;5096225;28;24440;-78
2022/01/22 07:24:59;;;;;;;12.27;8.95;;;;;;;0.62;100.00;97258.59;5095659;28;24426;-77
2022/01/22 07:27:26;;;;;;;13.45;8.20;;;;;;;0.60;100.00;97262.03;5095444;28;24419;-78
2022/01/22 07:29:52;;;;;;;17.33;8.93;;;;;;;0.64;100.00;97263.72;5094864;28;24429;-78
2022/01/22 07:32:27;;;;;;;11.68;7.97;;;;;;;0.64;100.00;97267.13;5095829;28;24421;-78
2022/01/22 07:34:54;;;;;;;11.77;7.35;;;;;;;0.60;100.00;97267.13;5095778;28;24445;-77
2022/01/22 07:37:22;;;;;;;14.50;9.18;;;;;;;0.57;100.00;97269.66;5095430;28;24442;-78
2022/01/22 07:39:48;;;;;;;12.93;9.90;;;;;;;0.59;100.00;97267.97;5096046;28;24422;-77
2022/01/22 07:42:15;;;;;;;13.38;9.95;;;;;;;0.66;100.00;97264.56;5095156;28;24483;-78
2022/01/22 07:44:41;;;;;;;15.98;8.88;;;;;;;0.62;100.00;97263.72;5095951;28;24834;-78
2022/01/22 07:47:08;;;;;;;11.02;8.25;;;;;;;0.58;100.00;97269.66;5095086;28;24944;-78
2022/01/22 07:49:34;;;;;;;12.70;8.75;;;;;;;0.66;100.00;97269.66;5095790;28;24419;-77
2022/01/22 07:52:00;;;;;;;17.23;9.32;;;;;;;0.72;100.00;97267.13;5096168;28;24420;-78
2022/01/22 07:54:28;;;;;;;11.23;9.47;;;;;;;0.76;100.00;97265.41;5095646;28;24479;-77
2022/01/22 07:56:55;;;;;;;11.73;8.13;;;;;;;0.78;100.00;97267.13;5094782;28;24445;-78
2022/01/22 07:59:21;;;;;;;11.25;7.55;;;;;;;0.82;100.00;97276.47;5095695;28;24476;-77
2022/01/22 08:01:47;;;;;;;10.18;7.35;;;;;;;0.74;100.00;97270.50;5093634;28;24445;-78
2022/01/22 08:04:15;;;;;;;12.70;9.55;;;;;;;0.76;100.00;97267.97;5094313;28;24791;-78
2022/01/22 08:06:42;;;;;;;23.40;13.70;;;;;;;0.78;100.00;97268.81;5090925;28;24414;-77
2022/01/22 08:09:08;;;;;;;32.80;16.60;;;;;;;0.80;100.00;97270.50;5091192;28;24426;-77
2022/01/22 08:11:36;;;;;;;13.98;11.52;;;;;;;0.76;100.00;97273.91;5094805;28;24507;-78
2022/01/22 08:14:03;;;;;;;14.18;9.82;;;;;;;0.75;100.00;97269.69;5095752;28;24424;-77
2022/01/22 08:16:29;;;;;;;11.13;7.78;;;;;;;0.80;100.00;97274.75;5094086;28;24457;-77
2022/01/22 08:18:56;;;;;;;11.07;9.35;;;;;;;0.69;100.00;97275.59;5095587;28;24433;-77
2022/01/22 08:21:22;;;;;;;10.98;7.60;;;;;;;0.71;100.00;97271.38;5095963;28;24467;-77
2022/01/22 08:23:48;;;;;;;13.32;8.95;;;;;;;0.68;100.00;97273.06;5094713;28;24418;-78
2022/01/22 08:26:19;;;;;;;11.10;8.38;;;;;;;0.68;100.00;97273.06;5093232;28;24426;-78
2022/01/22 08:28:57;;;;;;;11.10;8.27;;;;;;;0.75;100.00;97273.94;5094737;28;24449;-77
2022/01/22 08:31:37;;;;;;;11.80;7.70;;;;;;;0.78;100.00;97277.31;5096051;28;24472;-77
2022/01/22 08:36:50;;;;;;;9.43;7.00;;;;;;;0.83;100.00;97277.31;5091842;28;24584;-77
2022/01/22 08:39:18;;;;;;;8.55;7.47;;;;;;;0.87;100.00;97274.75;5094108;28;24429;-77
2022/01/22 08:41:45;;;;;;;12.60;8.48;;;;;;;0.87;100.00;97268.81;5090347;28;24437;-78
2022/01/22 08:44:13;;;;;;;13.57;7.88;;;;;;;0.85;100.00;97276.44;5090676;28;24418;-77
2022/01/22 08:46:40;;;;;;;12.55;8.00;;;;;;;0.95;100.00;97273.03;5090147;28;24468;-77
2022/01/22 08:49:08;;;;;;;10.33;8.73;;;;;;;0.97;100.00;97280.72;5093293;28;24487;-78
2022/01/22 08:51:38;;;;;;;10.88;8.75;;;;;;;0.95;100.00;97293.47;5093117;28;24425;-77
2022/01/22 08:54:04;;;;;;;11.00;7.68;;;;;;;0.91;100.00;97296.88;5090300;28;24940;-77
2022/01/22 08:56:31;;;;;;;7.68;6.43;;;;;;;0.93;100.00;97297.72;5090138;28;24445;-77
2022/01/22 08:58:58;;;;;;;10.73;5.97;;;;;;;0.83;100.00;97293.47;5090473;28;24434;-77
2022/01/22 09:01:26;;;;;;;8.88;5.90;;;;;;;0.83;100.00;97302.81;5093302;28;24437;-77
2022/01/22 09:03:53;;;;;;;9.25;6.45;;;;;;;0.76;100.00;97306.22;5094455;28;24433;-77
2022/01/22 09:06:20;;;;;;;9.67;7.00;;;;;;;0.75;100.00;97304.53;5095067;28;24920;-77
2022/01/22 09:08:50;;;;;;;7.90;6.03;;;;;;;0.75;100.00;97313.03;5095118;28;24427;-78
2022/01/22 09:11:16;;;;;;;8.82;5.82;;;;;;;0.74;100.00;97324.06;5092612;28;24422;-78
2022/01/22 09:13:43;;;;;;;10.43;5.68;;;;;;;0.78;100.00;97323.25;5093106;28;24943;-77
2022/01/22 09:16:09;;;;;;;7.90;5.65;;;;;;;0.74;100.00;97326.59;5094166;28;24442;-78
2022/01/22 09:18:37;;;;;;;7.22;4.82;;;;;;;0.73;100.00;97327.47;5093847;28;24445;-77
2022/01/22 09:21:04;;;;;;;9.15;5.72;;;;;;;0.80;100.00;97329.16;5094448;28;24430;-77
2022/01/22 09:23:32;;;;;;;7.53;5.18;;;;;;;0.82;100.00;97324.94;5094300;28;24530;-77
2022/01/22 09:25:59;;;;;;;8.10;5.60;;;;;;;0.92;100.00;97318.97;5094810;28;24421;-77
2022/01/22 09:28:26;;;;;;;7.43;5.80;;;;;;;1.02;100.00;97312.16;5094539;28;24439;-77
2022/01/22 09:30:53;;;;;;;6.90;5.03;;;;;;;0.89;100.00;97316.44;5092507;28;24982;-77
2022/01/22 09:33:21;;;;;;;9.35;5.53;;;;;;;0.89;100.00;97321.53;5092127;28;24426;-77
2022/01/22 09:35:49;;;;;;;10.80;5.72;;;;;;;0.86;100.00;97326.63;5094944;28;24792;-77
2022/01/22 09:38:15;;;;;;;7.57;5.45;;;;;;;0.88;100.00;97331.72;5094677;28;24422;-77
2022/01/22 09:40:42;;;;;;;11.30;5.72;;;;;;;0.90;100.00;97323.22;5093891;28;24426;-78
2022/01/22 09:43:09;;;;;;;10.40;6.30;;;;;;;0.99;100.00;97317.25;5093522;28;24463;-78
2022/01/22 09:45:35;;;;;;;8.98;5.65;;;;;;;1.05;100.00;97317.28;5094021;28;24494;-77
2022/01/22 09:48:02;;;;;;;7.13;4.80;;;;;;;1.01;100.00;97315.56;5089827;28;24788;-77
2022/01/22 09:50:31;;;;;;;7.40;5.33;;;;;;;1.08;100.00;97324.09;5089822;28;24418;-77
2022/01/22 09:52:59;;;;;;;7.45;4.60;;;;;;;1.13;100.00;97322.38;5093059;28;24421;-78
2022/01/22 09:55:25;;;;;;;7.73;5.10;;;;;;;1.17;100.00;97319.81;5095302;28;24421;-78
2022/01/22 09:57:54;;;;;;;7.47;4.53;;;;;;;1.22;100.00;97324.91;5094458;28;24430;-77
2022/01/22 10:00:22;;;;;;;10.82;4.38;;;;;;;1.27;100.00;97330.03;5094042;28;24426;-78
2022/01/22 10:02:49;;;;;;;5.93;4.70;;;;;;;1.24;100.00;97333.41;5097743;28;24527;-78
2022/01/22 10:05:34;;;;;;;7.28;4.63;;;;;;;1.25;100.00;97335.09;5096691;28;24417;-79
2022/01/22 10:08:28;;;;;;;6.13;4.10;;;;;;;1.21;100.00;97339.38;5097348;28;24947;-77
2022/01/22 10:10:56;;;;;;;7.47;4.32;;;;;;;1.30;100.00;97324.88;5097271;28;24434;-78
2022/01/22 10:13:41;;;;;;;7.18;4.38;;;;;;;1.32;100.00;97331.69;5097904;28;24414;-78
2022/01/22 10:16:16;;;;;;;11.23;4.90;;;;;;;1.35;100.00;97347.00;5096837;28;24437;-78
2022/01/22 10:18:43;;;;;;;6.90;4.70;;;;;;;1.33;100.00;97342.75;5097332;28;24422;-78
2022/01/22 10:21:11;;;;;;;14.32;5.18;;;;;;;1.34;100.00;97339.38;5097350;28;24430;-78
2022/01/22 10:23:41;;;;;;;7.32;4.65;;;;;;;1.30;100.00;97343.63;5096864;28;24961;-78
2022/01/22 10:26:12;;;;;;;17.98;4.38;;;;;;;1.34;100.00;97319.78;5096586;28;24430;-78
2022/01/22 10:28:42;;;;;;;5.88;4.05;;;;;;;1.33;100.00;97324.88;5097020;28;24498;-78
2022/01/22 10:31:18;;;;;;;8.10;4.72;;;;;;;1.35;100.00;97320.63;5095478;28;24799;-78
2022/01/22 10:33:44;;;;;;;5.55;4.10;;;;;;;1.41;100.00;97321.50;5096558;28;24520;-77
2022/01/22 10:36:15;;;;;;;5.72;3.90;;;;;;;1.37;100.00;97324.03;5093826;28;24429;-76
2022/01/22 10:38:44;;;;;;;6.32;4.07;;;;;;;1.39;100.00;97325.72;5093293;28;24487;-76
2022/01/22 10:41:12;;;;;;;6.45;3.78;;;;;;;1.40;100.00;97319.75;5092471;28;24438;-76
2022/01/22 10:43:43;;;;;;;6.20;4.53;;;;;;;1.44;100.00;97318.91;5092601;28;24939;-78
2022/01/22 10:46:19;;;;;;;4.72;3.72;;;;;;;1.53;100.00;97314.66;5092743;28;24499;-77
2022/01/22 10:48:54;;;;;;;7.63;4.40;;;;;;;1.52;100.00;97311.25;5092775;28;24429;-77
2022/01/22 10:51:21;;;;;;;6.07;3.97;;;;;;;1.54;100.00;97303.56;5092842;28;24434;-77
2022/01/22 10:53:50;;;;;;;7.93;4.65;;;;;;;1.54;100.00;97301.88;5092437;28;24475;-77
2022/01/22 10:56:19;;;;;;;6.88;4.82;;;;;;;1.58;100.00;97301.00;5092023;28;24780;-77
2022/01/22 10:58:55;;;;;;;6.10;4.22;;;;;;;1.60;100.00;97294.19;5092649;28;24430;-77
2022/01/22 11:01:23;;;;;;;5.55;4.38;;;;;;;1.68;100.00;97296.72;5093620;28;24426;-77
2022/01/22 11:04:02;;;;;;;6.53;4.20;;;;;;;1.75;100.00;97292.44;5093931;28;24472;-77
2022/01/22 11:06:29;;;;;;;5.55;4.15;;;;;;;1.83;100.00;97303.50;5093092;28;24418;-77
2022/01/22 11:08:57;;;;;;;3.63;2.95;;;;;;;1.89;100.00;97298.34;5093614;28;24422;-76
2022/01/22 11:11:24;;;;;;;3.70;3.00;;;;;;;1.91;100.00;97292.38;5092169;28;24497;-76
2022/01/22 11:13:50;;;;;;;3.42;2.50;;;;;;;1.85;100.00;97296.66;5092082;28;24863;-76
2022/01/22 11:16:18;;;;;;;4.13;2.80;;;;;;;1.81;100.00;97292.41;5091803;28;24444;-77
2022/01/22 11:18:48;;;;;;;3.92;2.50;;;;;;;1.83;100.00;97285.59;5092051;28;24422;-77
2022/01/22 11:21:16;;;;;;;4.47;2.45;;;;;;;1.90;100.00;97289.84;5091880;28;24429;-77
2022/01/22 11:23:43;;;;;;;4.68;2.50;;;;;;;2.00;100.00;97290.63;5091952;28;24429;-76
2022/01/22 11:26:11;;;;;;;4.38;2.80;;;;;;;1.87;100.00;97290.69;5091543;28;24422;-76
2022/01/22 11:28:39;;;;;;;2.90;2.30;;;;;;;1.92;100.00;97288.94;5091511;28;24970;-76
2022/01/22 11:31:06;;;;;;;2.75;2.00;;;;;;;1.95;100.00;97298.31;5091793;28;24422;-77
2022/01/22 11:33:35;;;;;;;2.90;1.90;;;;;;;1.94;100.00;97296.63;5091506;28;24834;-77
2022/01/22 11:36:05;;;;;;;3.08;2.20;;;;;;;1.93;100.00;97302.59;5091604;28;24426;-77
2022/01/22 11:38:36;;;;;;;2.88;1.80;;;;;;;1.85;100.00;97306.88;5091691;28;24442;-77
2022/01/22 11:41:05;;;;;;;3.13;2.50;;;;;;;1.94;100.00;97299.19;5091373;28;24963;-77
2022/01/22 11:44:07;;;;;;;3.00;2.60;;;;;;;1.96;100.00;97309.38;5092038;28;24422;-76
2022/01/22 11:46:37;;;;;;;3.17;2.10;;;;;;;1.96;100.00;97306.81;5091405;28;24426;-76
2022/01/22 11:49:15;;;;;;;4.10;2.63;;;;;;;2.01;100.00;97300.00;5091762;28;24491;-76
2022/01/22 11:51:44;;;;;;;5.63;2.45;;;;;;;2.03;100.00;97306.78;5091395;28;24768;-76
2022/01/22 11:54:11;;;;;;;2.92;2.22;;;;;;;2.10;100.00;97292.28;5091231;28;24429;-76
2022/01/22 11:56:47;;;;;;;4.20;2.40;;;;;;;2.08;100.00;97296.56;5090831;28;24702;-76
2022/01/22 11:59:22;;;;;;;4.75;2.58;;;;;;;2.08;100.00;97299.13;5091582;28;24487;-78
2022/01/22 12:02:00;;;;;;;3.45;2.38;;;;;;;2.08;100.00;97299.13;5091425;28;24422;-78
2022/01/22 12:04:45;;;;;;;3.17;2.40;;;;;;;2.10;100.00;97295.69;5090590;28;24420;-79
2022/01/22 12:07:15;;;;;;;4.05;2.97;;;;;;;2.12;100.00;97293.13;5091071;28;24425;-77
2022/01/22 12:09:52;;;;;;;3.55;2.22;;;;;;;2.04;100.00;97298.28;5091142;28;24994;-77
2022/01/22 12:15:13;;;;;;;3.53;2.30;;;;;;;1.88;100.00;97289.81;5090377;28;24453;-77
2022/01/22 12:18:10;;;;;;;4.03;2.83;;;;;;;1.96;100.00;97287.22;5090701;28;24500;-77
2022/01/22 12:23:48;;;;;;;4.77;2.97;;;;;;;1.87;100.00;97289.84;5089063;28;24422;-77
2022/01/22 12:26:14;;;;;;;3.67;2.70;;;;;;;1.85;100.00;97289.81;5091647;28;24417;-77
2022/01/22 12:28:43;;;;;;;5.72;3.10;;;;;;;1.90;100.00;97285.56;5092147;28;24741;-77
2022/01/22 12:31:16;;;;;;;4.40;2.92;;;;;;;1.90;100.00;97289.84;5092143;28;24850;-77
2022/01/22 12:33:49;;;;;;;3.10;2.58;;;;;;;1.92;100.00;97285.56;5091041;28;24418;-77
2022/01/22 12:36:23;;;;;;;4.50;3.13;;;;;;;1.90;100.00;97292.38;5090537;28;24418;-77
2022/01/22 12:39:03;;;;;;;3.45;2.92;;;;;;;1.90;100.00;97283.00;5090895;28;24442;-77
2022/01/22 12:41:32;;;;;;;4.20;3.00;;;;;;;1.91;100.00;97291.53;5091979;28;24437;-78
2022/01/22 12:44:07;;;;;;;4.15;3.00;;;;;;;1.92;100.00;97291.50;5092136;28;24430;-77